Time;durP1;ratioP1;P1;durP2;ratioP2;P2;SDS_P1;SDS_P2;PMS_P1;PMS_P2;Temp;Humidity;BMP_temperature;BMP_pressure;BME280_temperature;BME280_humidity;BME280_pressure;Samples;Min_cycle;Max_cycle;Signal;HPM_P1;HPM_P2
2022/02/22 00:01:51;;;;;;;2.13;1.47;;;7.70;99.90;;;;;;5028344;28;20211;-59
2022/02/22 00:04:17;;;;;;;5.33;1.80;;;7.50;99.90;;;;;;5024044;28;20455;-60
2022/02/22 00:06:43;;;;;;;2.60;1.77;;;7.60;99.90;;;;;;5028704;28;20210;-58
2022/02/22 00:09:08;;;;;;;2.87;1.20;;;7.60;99.90;;;;;;5030466;28;20939;-59
2022/02/22 00:11:34;;;;;;;5.63;1.47;;;7.60;99.90;;;;;;5026732;28;20576;-58
2022/02/22 00:13:59;;;;;;;4.80;1.70;;;7.70;99.90;;;;;;5021595;28;20651;-58
2022/02/22 00:16:25;;;;;;;5.13;1.27;;;7.20;99.90;;;;;;5027106;28;20191;-59
2022/02/22 00:18:51;;;;;;;2.33;1.40;;;7.60;99.90;;;;;;5024200;28;20259;-58
2022/02/22 00:21:16;;;;;;;4.33;1.33;;;7.90;99.90;;;;;;5030252;28;20627;-59
2022/02/22 00:23:42;;;;;;;1.47;1.20;;;7.80;99.90;;;;;;5028696;28;20568;-58
2022/02/22 00:26:07;;;;;;;3.00;1.40;;;7.70;99.70;;;;;;5025782;28;20214;-60
2022/02/22 00:28:33;;;;;;;5.33;1.40;;;7.60;99.90;;;;;;5020805;28;20260;-59
2022/02/22 00:30:59;;;;;;;3.57;1.47;;;7.70;99.90;;;;;;5030966;28;20626;-58
2022/02/22 00:33:24;;;;;;;2.13;1.17;;;7.80;99.90;;;;;;5023083;28;20191;-57
2022/02/22 00:35:51;;;;;;;2.70;1.40;;;7.80;99.90;;;;;;5029892;28;20190;-59
2022/02/22 00:38:17;;;;;;;3.50;1.23;;;7.70;99.90;;;;;;5029514;28;20190;-59
2022/02/22 00:40:43;;;;;;;3.20;1.38;;;7.60;99.90;;;;;;5029550;28;20194;-57
2022/02/22 00:43:08;;;;;;;1.40;1.00;;;7.50;99.90;;;;;;5014201;28;20222;-59
2022/02/22 00:45:35;;;;;;;2.90;1.57;;;7.40;99.90;;;;;;5026434;28;20468;-58
2022/02/22 00:48:01;;;;;;;3.45;1.35;;;7.70;99.90;;;;;;5026792;28;20270;-59
2022/02/22 00:50:28;;;;;;;5.53;2.03;;;7.60;99.90;;;;;;5026886;28;20236;-59
2022/02/22 00:52:56;;;;;;;4.15;1.90;;;7.50;99.90;;;;;;5027518;28;20190;-59
2022/02/22 00:55:22;;;;;;;5.15;1.40;;;7.70;99.90;;;;;;5029717;28;20198;-59
2022/02/22 00:57:47;;;;;;;4.28;1.70;;;7.70;99.90;;;;;;5020561;28;20239;-58
2022/02/22 01:00:13;;;;;;;2.50;1.47;;;7.70;99.90;;;;;;5025062;28;20211;-59
2022/02/22 01:02:39;;;;;;;1.83;1.43;;;7.60;99.90;;;;;;5028114;28;20360;-59
2022/02/22 01:05:05;;;;;;;3.80;1.70;;;7.60;99.90;;;;;;5023308;28;20442;-59
2022/02/22 01:07:31;;;;;;;2.58;1.20;;;7.50;99.70;;;;;;5035004;28;20190;-58
2022/02/22 01:09:57;;;;;;;4.38;1.98;;;7.70;99.90;;;;;;5024308;28;20193;-60
2022/02/22 01:12:22;;;;;;;2.80;1.27;;;7.30;99.90;;;;;;5029094;28;20198;-60
2022/02/22 01:14:48;;;;;;;2.87;1.20;;;7.30;99.80;;;;;;5013230;28;20262;-62
2022/02/22 01:17:14;;;;;;;2.57;1.37;;;6.80;99.70;;;;;;5025680;28;20206;-60
2022/02/22 01:19:39;;;;;;;3.50;1.47;;;7.40;99.60;;;;;;5026608;28;20208;-60
2022/02/22 01:22:05;;;;;;;1.85;1.00;;;6.70;99.20;;;;;;5015550;28;20206;-61
2022/02/22 01:24:32;;;;;;;1.80;1.37;;;7.20;99.30;;;;;;5018741;28;20230;-60
2022/02/22 01:26:58;;;;;;;2.72;1.42;;;7.30;99.40;;;;;;5028937;28;20182;-62
2022/02/22 01:29:25;;;;;;;1.90;1.20;;;7.60;99.60;;;;;;5027575;28;20539;-61
2022/02/22 01:31:51;;;;;;;5.22;1.45;;;7.30;99.50;;;;;;5025653;28;20257;-60
2022/02/22 01:34:16;;;;;;;5.60;1.93;;;7.30;99.70;;;;;;5023968;28;20183;-60
2022/02/22 01:36:42;;;;;;;7.20;1.50;;;7.30;99.90;;;;;;5030324;28;20857;-61
2022/02/22 01:39:07;;;;;;;2.60;1.70;;;7.50;99.90;;;;;;5029151;28;20206;-61
2022/02/22 01:41:39;;;;;;;2.47;1.60;;;7.60;99.90;;;;;;5028242;28;20705;-61
2022/02/22 01:44:05;;;;;;;7.47;1.80;;;7.40;99.90;;;;;;5018440;28;20183;-59
2022/02/22 01:46:30;;;;;;;3.87;1.57;;;7.60;99.90;;;;;;5027253;28;20742;-60
2022/02/22 01:48:56;;;;;;;6.10;2.13;;;7.40;99.90;;;;;;5017179;28;20183;-61
2022/02/22 01:51:21;;;;;;;3.23;1.73;;;7.30;99.90;;;;;;5026993;28;20289;-60
2022/02/22 01:53:47;;;;;;;2.50;1.30;;;7.20;99.90;;;;;;5029990;28;20193;-62
2022/02/22 01:56:17;;;;;;;5.07;1.80;;;7.30;99.90;;;;;;5029386;28;20180;-60
2022/02/22 01:58:43;;;;;;;5.10;1.88;;;7.10;99.90;;;;;;5025833;28;20182;-60
2022/02/22 02:01:09;;;;;;;1.98;1.40;;;6.90;99.90;;;;;;5025928;28;20202;-61
2022/02/22 02:03:35;;;;;;;3.03;1.42;;;6.80;99.90;;;;;;5015190;28;20349;-60
2022/02/22 02:06:01;;;;;;;2.17;1.03;;;6.90;99.90;;;;;;5026554;28;20999;-61
2022/02/22 02:08:26;;;;;;;5.80;1.97;;;6.70;99.90;;;;;;5020079;28;20465;-58
2022/02/22 02:10:52;;;;;;;2.30;1.50;;;6.80;99.90;;;;;;5029032;28;20572;-62
2022/02/22 02:13:18;;;;;;;3.33;1.40;;;6.80;99.90;;;;;;5025148;28;20186;-60
2022/02/22 02:15:43;;;;;;;5.03;1.40;;;6.80;99.90;;;;;;5029903;28;20183;-60
2022/02/22 02:18:09;;;;;;;3.10;1.50;;;6.50;99.90;;;;;;5031754;28;20190;-58
2022/02/22 02:20:34;;;;;;;3.43;1.27;;;6.60;99.90;;;;;;5030588;28;20549;-63
2022/02/22 02:23:00;;;;;;;3.63;1.20;;;6.60;99.90;;;;;;5030088;28;20178;-58
2022/02/22 02:25:26;;;;;;;3.23;1.37;;;6.70;99.90;;;;;;5029578;28;20212;-62
2022/02/22 02:27:51;;;;;;;3.50;2.03;;;6.80;99.90;;;;;;5027204;28;20181;-60
2022/02/22 02:30:17;;;;;;;5.90;1.57;;;6.70;99.90;;;;;;5016927;28;20294;-60
2022/02/22 02:32:43;;;;;;;3.47;1.30;;;7.10;99.90;;;;;;5031826;28;20200;-61
2022/02/22 02:35:09;;;;;;;3.13;1.20;;;6.50;99.90;;;;;;5028980;28;20184;-59
2022/02/22 02:37:37;;;;;;;3.90;2.05;;;6.60;99.90;;;;;;5024820;28;20437;-61
2022/02/22 02:40:05;;;;;;;2.97;1.92;;;6.50;99.90;;;;;;5026497;28;20182;-59
2022/02/22 02:42:30;;;;;;;5.30;1.63;;;6.40;99.90;;;;;;5026590;28;20203;-58
2022/02/22 02:44:56;;;;;;;4.10;1.60;;;6.50;99.90;;;;;;5023139;28;20225;-59
2022/02/22 02:47:22;;;;;;;2.90;1.33;;;6.40;99.90;;;;;;5025464;28;20203;-58
2022/02/22 02:49:47;;;;;;;2.93;1.30;;;6.40;99.90;;;;;;5026184;28;20257;-59
2022/02/22 02:52:13;;;;;;;2.60;1.27;;;5.70;99.90;;;;;;5032523;28;20204;-60
2022/02/22 02:54:39;;;;;;;3.13;1.40;;;6.60;99.90;;;;;;5028243;28;20194;-61
2022/02/22 02:57:05;;;;;;;4.70;1.60;;;6.50;99.90;;;;;;5031678;28;20245;-60
2022/02/22 02:59:30;;;;;;;3.17;1.37;;;6.50;99.90;;;;;;5017227;28;20440;-59
2022/02/22 03:01:56;;;;;;;3.03;1.87;;;6.40;99.90;;;;;;5031051;28;20545;-58
2022/02/22 03:04:21;;;;;;;3.53;1.70;;;6.40;99.90;;;;;;5023920;28;20204;-59
2022/02/22 03:06:47;;;;;;;2.00;1.60;;;6.40;99.90;;;;;;5021098;28;20264;-61
2022/02/22 03:09:13;;;;;;;4.33;2.10;;;6.50;99.90;;;;;;5029340;28;20195;-59
2022/02/22 03:11:39;;;;;;;5.75;1.85;;;6.30;99.90;;;;;;5030588;28;20723;-59
2022/02/22 03:14:06;;;;;;;4.50;2.10;;;6.50;99.90;;;;;;5019244;28;20242;-59
2022/02/22 03:16:32;;;;;;;3.05;1.23;;;6.40;99.90;;;;;;5023791;28;20269;-59
2022/02/22 03:18:57;;;;;;;3.20;1.87;;;6.40;99.90;;;;;;5019958;28;20723;-58
2022/02/22 03:21:23;;;;;;;5.40;2.10;;;6.40;99.90;;;;;;5023545;28;20253;-59
2022/02/22 03:23:49;;;;;;;5.63;1.67;;;6.60;99.90;;;;;;5022093;28;20274;-58
2022/02/22 03:26:15;;;;;;;4.03;1.57;;;6.40;99.90;;;;;;5018542;28;20305;-60
2022/02/22 03:28:40;;;;;;;2.83;1.53;;;6.20;99.90;;;;;;5023206;28;20194;-57
2022/02/22 03:31:06;;;;;;;3.90;1.47;;;6.60;99.90;;;;;;5036506;28;20947;-58
2022/02/22 03:33:33;;;;;;;6.05;1.95;;;6.30;99.90;;;;;;5025875;28;20951;-59
2022/02/22 03:35:59;;;;;;;2.88;1.40;;;6.30;99.90;;;;;;5030080;28;20194;-60
2022/02/22 03:38:25;;;;;;;3.08;1.63;;;6.30;99.90;;;;;;5027550;28;20209;-58
2022/02/22 03:40:50;;;;;;;5.55;2.00;;;6.30;99.90;;;;;;5027491;28;20778;-59
2022/02/22 03:43:16;;;;;;;3.33;1.70;;;6.30;99.90;;;;;;5018893;28;20278;-59
2022/02/22 03:45:42;;;;;;;3.77;1.87;;;6.30;99.90;;;;;;5029087;28;20220;-58
2022/02/22 03:48:07;;;;;;;4.47;2.00;;;6.30;99.90;;;;;;5027064;28;20674;-58
2022/02/22 03:50:33;;;;;;;2.07;1.50;;;6.20;99.90;;;;;;5034837;28;20182;-57
2022/02/22 03:52:59;;;;;;;5.57;1.97;;;6.10;99.90;;;;;;5021812;28;20587;-59
2022/02/22 03:55:25;;;;;;;5.10;1.53;;;6.30;99.90;;;;;;5029803;28;20185;-57
2022/02/22 03:57:51;;;;;;;3.65;1.83;;;6.10;99.90;;;;;;5029211;28;20196;-57
2022/02/22 04:00:19;;;;;;;3.05;1.67;;;6.20;99.90;;;;;;5027957;28;20547;-58
2022/02/22 04:02:45;;;;;;;7.00;2.67;;;6.30;99.90;;;;;;5028744;28;20220;-57
2022/02/22 04:05:13;;;;;;;3.00;1.77;;;6.20;99.90;;;;;;5020622;28;20225;-58
2022/02/22 04:07:39;;;;;;;4.80;1.95;;;6.00;99.90;;;;;;5023200;28;20195;-58
2022/02/22 04:10:06;;;;;;;5.50;2.00;;;6.10;99.90;;;;;;5026463;28;20786;-57
2022/02/22 04:12:32;;;;;;;3.65;1.58;;;6.20;99.90;;;;;;5018692;28;20221;-58
2022/02/22 04:14:58;;;;;;;2.40;1.47;;;6.10;99.90;;;;;;5029455;28;20190;-59
2022/02/22 04:17:23;;;;;;;2.90;1.60;;;6.30;99.90;;;;;;5028335;28;20955;-58
2022/02/22 04:19:49;;;;;;;2.23;1.50;;;6.60;99.90;;;;;;5024576;28;20222;-58
2022/02/22 04:22:19;;;;;;;3.50;2.87;;;6.30;99.90;;;;;;5026591;28;20304;-59
2022/02/22 04:24:45;;;;;;;5.35;2.10;;;6.60;99.90;;;;;;5029026;28;20444;-60
2022/02/22 04:27:11;;;;;;;3.23;1.97;;;6.20;99.90;;;;;;5026450;28;20189;-59
2022/02/22 04:29:37;;;;;;;4.65;1.40;;;6.50;99.90;;;;;;5016030;28;20812;-59
2022/02/22 04:32:04;;;;;;;6.13;1.77;;;6.40;99.90;;;;;;5030490;28;20205;-61
2022/02/22 04:34:29;;;;;;;5.80;2.17;;;6.60;99.90;;;;;;5025566;28;20938;-61
2022/02/22 04:36:55;;;;;;;4.13;1.87;;;6.90;99.90;;;;;;5035609;28;20198;-61
2022/02/22 04:39:21;;;;;;;3.23;1.77;;;6.60;99.90;;;;;;5031384;28;20190;-61
2022/02/22 04:41:46;;;;;;;2.53;1.70;;;6.60;99.90;;;;;;5021661;28;20209;-60
2022/02/22 04:44:12;;;;;;;5.40;2.60;;;6.70;99.90;;;;;;5028273;28;20202;-60
2022/02/22 04:46:38;;;;;;;5.60;1.80;;;6.30;99.90;;;;;;5029254;28;20694;-60
2022/02/22 04:49:08;;;;;;;5.30;3.60;;;6.40;99.90;;;;;;5026607;28;20186;-60
2022/02/22 04:51:34;;;;;;;4.43;1.95;;;6.30;99.90;;;;;;5030029;28;20543;-60
2022/02/22 04:54:00;;;;;;;6.83;2.13;;;6.10;99.90;;;;;;5030810;28;20204;-60
2022/02/22 04:56:26;;;;;;;3.27;2.60;;;5.90;99.90;;;;;;5023785;28;20822;-62
2022/02/22 04:58:51;;;;;;;2.90;1.87;;;6.40;99.90;;;;;;5024435;28;20255;-59
2022/02/22 05:01:17;;;;;;;5.50;2.00;;;6.00;99.90;;;;;;5030559;28;20209;-60
2022/02/22 05:03:42;;;;;;;4.70;2.07;;;6.10;99.90;;;;;;5025615;28;20275;-64
2022/02/22 05:06:08;;;;;;;2.93;2.07;;;6.10;99.90;;;;;;5025897;28;20224;-62
2022/02/22 05:08:33;;;;;;;5.03;2.80;;;6.10;99.90;;;;;;5026479;28;20207;-60
2022/02/22 05:10:59;;;;;;;5.10;2.33;;;5.50;99.90;;;;;;5030337;28;20205;-59
2022/02/22 05:13:25;;;;;;;6.10;2.40;;;5.90;99.90;;;;;;5019871;28;20265;-61
2022/02/22 05:15:50;;;;;;;5.30;2.33;;;5.60;99.90;;;;;;5030451;28;20194;-59
2022/02/22 05:18:16;;;;;;;4.90;2.93;;;5.90;99.90;;;;;;5025262;28;20182;-60
2022/02/22 05:20:54;;;;;;;6.07;2.87;;;6.00;99.90;;;;;;5029990;28;20588;-60
2022/02/22 05:23:20;;;;;;;4.25;2.38;;;6.00;99.90;;;;;;5030226;28;20193;-60
2022/02/22 05:25:46;;;;;;;4.85;2.25;;;6.00;99.90;;;;;;5029311;28;20221;-60
2022/02/22 05:28:12;;;;;;;5.07;2.63;;;5.80;99.90;;;;;;5027215;28;20658;-60
2022/02/22 05:30:37;;;;;;;3.90;2.10;;;5.90;99.90;;;;;;5030051;28;20248;-61
2022/02/22 05:33:03;;;;;;;4.17;2.20;;;6.00;99.90;;;;;;5028707;28;20197;-60
2022/02/22 05:35:29;;;;;;;8.95;2.80;;;6.10;99.90;;;;;;5026539;28;20197;-60
2022/02/22 05:37:55;;;;;;;4.30;2.50;;;6.10;99.90;;;;;;5023558;28;20727;-60
2022/02/22 05:40:20;;;;;;;6.53;2.50;;;6.10;99.90;;;;;;5016813;28;20195;-61
2022/02/22 05:42:46;;;;;;;2.90;2.00;;;5.50;99.90;;;;;;5028227;28;20224;-62
2022/02/22 05:45:12;;;;;;;6.53;2.57;;;5.60;99.90;;;;;;5030207;28;20688;-60
2022/02/22 05:47:37;;;;;;;3.67;1.90;;;5.90;99.90;;;;;;5029800;28;20222;-61
2022/02/22 05:50:03;;;;;;;6.53;2.20;;;5.30;99.90;;;;;;5030491;28;20247;-60
2022/02/22 05:52:29;;;;;;;8.02;2.35;;;5.90;99.90;;;;;;5036516;28;20689;-60
2022/02/22 05:54:54;;;;;;;10.80;2.60;;;5.70;99.90;;;;;;5040583;28;20180;-59
2022/02/22 05:57:24;;;;;;;3.60;2.13;;;5.40;99.90;;;;;;5030576;28;20185;-59
2022/02/22 05:59:50;;;;;;;6.45;2.22;;;5.80;99.90;;;;;;5028748;28;20216;-59
2022/02/22 06:02:15;;;;;;;9.60;2.10;;;5.70;99.90;;;;;;5029521;28;20684;-61
2022/02/22 06:04:41;;;;;;;3.60;2.40;;;5.40;99.90;;;;;;5026563;28;20236;-60
2022/02/22 06:07:06;;;;;;;4.97;2.30;;;5.50;99.90;;;;;;5026471;28;20289;-61
2022/02/22 06:09:32;;;;;;;3.40;1.90;;;5.50;99.90;;;;;;5030523;28;20686;-59
2022/02/22 06:11:58;;;;;;;2.57;2.10;;;5.60;99.90;;;;;;5029488;28;20245;-60
2022/02/22 06:14:23;;;;;;;7.00;2.50;;;5.80;99.90;;;;;;5030812;28;20192;-60
2022/02/22 06:16:53;;;;;;;3.60;2.07;;;5.90;99.90;;;;;;5028342;28;20192;-61
2022/02/22 06:19:19;;;;;;;5.75;2.95;;;5.60;99.90;;;;;;5029132;28;20650;-60
2022/02/22 06:21:45;;;;;;;2.67;2.20;;;5.60;99.90;;;;;;5031400;28;20258;-59
2022/02/22 06:24:10;;;;;;;3.20;2.17;;;5.70;99.90;;;;;;5033181;28;20900;-61
2022/02/22 06:26:36;;;;;;;7.40;3.63;;;5.70;99.90;;;;;;5031603;28;20358;-60
2022/02/22 06:29:01;;;;;;;5.60;2.70;;;5.50;99.90;;;;;;5026708;28;20201;-59
2022/02/22 06:31:27;;;;;;;4.30;2.33;;;6.20;99.90;;;;;;5025462;28;20282;-60
2022/02/22 06:33:53;;;;;;;4.93;2.40;;;5.70;99.90;;;;;;5029688;28;20240;-59
2022/02/22 06:36:18;;;;;;;3.40;2.20;;;6.00;99.90;;;;;;5032496;28;20176;-58
2022/02/22 06:38:44;;;;;;;5.37;2.50;;;6.00;99.90;;;;;;5028905;28;20198;-59
2022/02/22 06:41:09;;;;;;;6.30;2.80;;;6.00;99.90;;;;;;5024496;28;20212;-60
2022/02/22 06:43:35;;;;;;;5.90;2.47;;;6.50;99.90;;;;;;5028729;28;20181;-59
2022/02/22 06:46:03;;;;;;;3.80;2.40;;;6.50;99.90;;;;;;5029682;28;20240;-60
2022/02/22 06:48:28;;;;;;;7.18;3.05;;;5.70;99.90;;;;;;5023355;28;20183;-61
2022/02/22 06:50:54;;;;;;;6.43;3.30;;;5.80;99.90;;;;;;5025708;28;20206;-62
2022/02/22 06:53:20;;;;;;;5.73;2.40;;;6.20;99.90;;;;;;5030494;28;20662;-62
2022/02/22 06:55:45;;;;;;;6.27;3.07;;;5.70;99.90;;;;;;5027554;28;20216;-61
2022/02/22 06:58:11;;;;;;;4.50;2.50;;;6.30;99.90;;;;;;5019731;28;20223;-62
2022/02/22 07:00:40;;;;;;;9.07;2.87;;;6.10;99.90;;;;;;5029403;28;20666;-62
2022/02/22 07:03:06;;;;;;;5.50;2.38;;;6.00;99.90;;;;;;5029190;28;20201;-62
2022/02/22 07:05:31;;;;;;;6.57;3.47;;;6.20;99.90;;;;;;5024115;28;20584;-62
2022/02/22 07:07:57;;;;;;;6.33;2.70;;;6.40;99.90;;;;;;5024166;28;20797;-67
2022/02/22 07:10:26;;;;;;;6.35;3.58;;;6.40;99.90;;;;;;5012858;28;20195;-62
2022/02/22 07:12:52;;;;;;;6.40;3.30;;;6.00;99.90;;;;;;5028930;28;20175;-62
2022/02/22 07:15:18;;;;;;;6.07;2.90;;;6.00;99.90;;;;;;5017965;28;20209;-66
2022/02/22 07:17:49;;;;;;;3.85;2.60;;;5.80;99.90;;;;;;5023552;28;20532;-68
2022/02/22 07:20:16;;;;;;;6.15;2.45;;;5.80;99.90;;;;;;5023441;28;20200;-62
2022/02/22 07:22:44;;;;;;;5.05;3.05;;;6.20;99.90;;;;;;5029466;28;20205;-62
2022/02/22 07:25:10;;;;;;;7.32;2.97;;;5.70;99.90;;;;;;5028629;28;20678;-65
2022/02/22 07:27:36;;;;;;;5.70;3.15;;;6.30;99.90;;;;;;5015239;28;20719;-62
2022/02/22 07:30:06;;;;;;;4.60;2.60;;;6.30;99.90;;;;;;5025091;28;20230;-63
2022/02/22 07:32:33;;;;;;;3.58;2.40;;;6.40;99.90;;;;;;5029187;28;20270;-61
2022/02/22 07:34:58;;;;;;;6.35;2.90;;;6.60;99.90;;;;;;5032639;28;20235;-63
2022/02/22 07:37:24;;;;;;;6.00;2.33;;;6.80;99.90;;;;;;5026636;28;20190;-62
2022/02/22 07:39:50;;;;;;;9.13;2.83;;;6.80;99.90;;;;;;5023366;28;20186;-62
2022/02/22 07:42:16;;;;;;;6.40;2.85;;;6.60;99.90;;;;;;5015423;28;20199;-62
2022/02/22 07:44:42;;;;;;;10.20;2.60;;;6.90;99.90;;;;;;5025639;28;20183;-62
2022/02/22 07:47:08;;;;;;;4.83;2.30;;;6.60;99.90;;;;;;5029594;28;20455;-62
2022/02/22 07:49:33;;;;;;;5.00;2.17;;;7.10;99.90;;;;;;5019544;28;20453;-60
2022/02/22 07:51:59;;;;;;;6.77;2.77;;;6.40;99.90;;;;;;5028670;28;20222;-62
2022/02/22 07:54:24;;;;;;;8.90;2.90;;;6.60;99.90;;;;;;5030236;28;20604;-64
2022/02/22 07:56:50;;;;;;;6.43;2.70;;;6.70;99.90;;;;;;5016688;28;20284;-63
2022/02/22 07:59:16;;;;;;;3.43;2.63;;;6.70;99.90;;;;;;5026301;28;20260;-62
2022/02/22 08:01:41;;;;;;;8.40;2.40;;;6.30;99.90;;;;;;5018082;28;20237;-60
2022/02/22 08:04:07;;;;;;;8.80;2.77;;;6.90;99.90;;;;;;5026516;28;21214;-66
2022/02/22 08:06:33;;;;;;;5.40;2.40;;;7.00;99.90;;;;;;5018507;28;20211;-66
2022/02/22 08:08:58;;;;;;;5.00;2.43;;;7.10;99.90;;;;;;5014983;28;20682;-69
2022/02/22 08:11:26;;;;;;;4.47;2.53;;;7.10;99.90;;;;;;5013221;28;20210;-67
2022/02/22 08:13:52;;;;;;;4.45;2.30;;;7.30;99.90;;;;;;5013535;28;20528;-66
2022/02/22 08:16:18;;;;;;;6.30;2.72;;;7.30;99.70;;;;;;5022697;28;20210;-65
2022/02/22 08:18:43;;;;;;;7.07;2.20;;;7.60;99.40;;;;;;5021513;28;20225;-66
2022/02/22 08:21:09;;;;;;;6.10;2.23;;;8.00;98.80;;;;;;5021006;28;20237;-63
2022/02/22 08:23:35;;;;;;;8.13;2.57;;;8.00;98.70;;;;;;5013979;28;20198;-64
2022/02/22 08:26:04;;;;;;;14.70;2.90;;;7.90;98.50;;;;;;5018071;28;20269;-67
2022/02/22 08:28:30;;;;;;;12.77;2.95;;;7.90;98.30;;;;;;5030000;28;20186;-65
2022/02/22 08:30:56;;;;;;;3.47;2.00;;;8.20;97.90;;;;;;5023922;28;20213;-62
2022/02/22 08:33:22;;;;;;;5.88;2.42;;;8.50;97.50;;;;;;5016333;28;20460;-66
2022/02/22 08:35:48;;;;;;;6.73;2.60;;;8.70;97.30;;;;;;5028205;28;20194;-64
2022/02/22 08:38:14;;;;;;;11.63;2.23;;;8.70;96.70;;;;;;5028113;28;20186;-64
2022/02/22 08:40:40;;;;;;;6.17;2.60;;;9.10;96.10;;;;;;5009483;28;22117;-61
2022/02/22 08:43:05;;;;;;;4.30;2.27;;;9.00;96.20;;;;;;5024474;28;20420;-63
2022/02/22 08:45:31;;;;;;;3.83;1.77;;;9.20;95.50;;;;;;5016739;28;20474;-62
2022/02/22 08:47:57;;;;;;;4.07;2.17;;;9.40;94.60;;;;;;5020166;28;20217;-65
2022/02/22 08:50:23;;;;;;;5.03;2.47;;;9.40;94.60;;;;;;5020937;28;20186;-65
2022/02/22 08:52:49;;;;;;;6.47;2.28;;;9.20;94.50;;;;;;5021588;28;20675;-61
2022/02/22 08:55:15;;;;;;;6.37;2.60;;;9.40;94.90;;;;;;5033510;28;20198;-64
2022/02/22 08:57:41;;;;;;;8.68;2.25;;;9.40;95.20;;;;;;5027994;28;20191;-67
2022/02/22 09:00:10;;;;;;;3.67;2.10;;;9.40;95.10;;;;;;5021521;28;20186;-63
2022/02/22 09:02:39;;;;;;;3.30;1.90;;;9.20;95.10;;;;;;5028360;28;20206;-62
2022/02/22 09:05:05;;;;;;;5.80;2.20;;;9.40;95.10;;;;;;5015935;28;20276;-64
2022/02/22 09:07:31;;;;;;;2.88;1.80;;;9.20;95.00;;;;;;5026658;28;20608;-65
2022/02/22 09:09:57;;;;;;;4.70;2.30;;;9.40;95.20;;;;;;5019582;28;20195;-60
2022/02/22 09:12:23;;;;;;;7.37;2.47;;;9.30;95.40;;;;;;5030475;28;20206;-60
2022/02/22 09:14:48;;;;;;;6.13;2.30;;;8.80;95.50;;;;;;5022585;28;20185;-61
2022/02/22 09:17:14;;;;;;;5.90;2.83;;;8.90;96.00;;;;;;5025382;28;20422;-62
2022/02/22 09:19:39;;;;;;;3.87;1.80;;;9.00;95.90;;;;;;5021958;28;20269;-63
2022/02/22 09:22:05;;;;;;;5.43;1.80;;;9.20;95.90;;;;;;5029955;28;20271;-66
2022/02/22 09:24:30;;;;;;;3.80;1.57;;;9.10;96.00;;;;;;5031011;28;20684;-63
2022/02/22 09:26:56;;;;;;;5.23;2.50;;;9.10;95.90;;;;;;5022302;28;20589;-67
2022/02/22 09:29:22;;;;;;;6.00;2.60;;;8.90;96.00;;;;;;5021812;28;20234;-65
2022/02/22 09:31:49;;;;;;;7.80;1.90;;;9.10;96.40;;;;;;5022680;28;20201;-66
2022/02/22 09:34:15;;;;;;;5.00;2.28;;;8.60;96.20;;;;;;5023483;28;20186;-65
2022/02/22 09:36:41;;;;;;;3.35;1.90;;;8.90;96.40;;;;;;5024579;28;20258;-64
2022/02/22 09:39:07;;;;;;;6.97;3.07;;;8.90;96.40;;;;;;5036857;28;20198;-66
2022/02/22 09:41:35;;;;;;;6.00;2.70;;;9.30;96.80;;;;;;5022707;28;20218;-65
2022/02/22 09:44:01;;;;;;;7.15;2.22;;;9.20;96.60;;;;;;5031576;28;20203;-65
2022/02/22 09:46:28;;;;;;;6.03;1.73;;;9.10;96.30;;;;;;5032398;28;20211;-66
2022/02/22 09:48:54;;;;;;;3.40;1.65;;;9.50;96.40;;;;;;5027683;28;20214;-65
2022/02/22 09:51:19;;;;;;;4.00;2.30;;;9.60;95.90;;;;;;5026837;28;20562;-63
2022/02/22 09:53:45;;;;;;;3.23;1.73;;;9.50;95.50;;;;;;5025427;28;20274;-63
2022/02/22 09:56:10;;;;;;;3.83;1.60;;;9.40;95.50;;;;;;5025065;28;20215;-63
2022/02/22 09:58:36;;;;;;;4.27;1.60;;;9.50;95.80;;;;;;5028337;28;20214;-63
2022/02/22 10:01:03;;;;;;;3.80;1.83;;;9.70;95.90;;;;;;5015670;28;20599;-62
2022/02/22 10:03:29;;;;;;;2.28;2.03;;;9.50;95.40;;;;;;5023606;28;20285;-61
2022/02/22 10:05:57;;;;;;;3.30;1.70;;;9.40;94.90;;;;;;5044796;28;20877;-63
2022/02/22 10:08:30;;;;;;;9.07;3.40;;;9.50;95.30;;;;;;5019787;28;20324;-61
2022/02/22 10:11:09;;;;;;;5.35;2.10;;;9.50;95.20;;;;;;5020550;28;20221;-60
2022/02/22 10:13:36;;;;;;;3.20;1.67;;;9.30;95.20;;;;;;5014753;28;20665;-58
2022/02/22 10:16:11;;;;;;;3.47;1.85;;;9.40;94.90;;;;;;5030730;28;20213;-62
2022/02/22 10:18:48;;;;;;;3.92;1.65;;;9.60;94.80;;;;;;5020286;28;20221;-62
2022/02/22 10:21:13;;;;;;;4.50;1.73;;;9.90;94.70;;;;;;5016890;28;20306;-62
2022/02/22 10:23:39;;;;;;;3.50;2.10;;;9.80;94.50;;;;;;5021322;28;20277;-63
2022/02/22 10:26:04;;;;;;;3.93;2.37;;;9.90;94.50;;;;;;5020218;28;20320;-64
2022/02/22 10:28:30;;;;;;;6.50;2.33;;;9.80;94.40;;;;;;5024207;28;20198;-63
2022/02/22 10:30:56;;;;;;;3.60;2.17;;;9.70;94.60;;;;;;5018996;28;20257;-61
2022/02/22 10:33:27;;;;;;;5.30;2.43;;;9.90;94.80;;;;;;5009454;28;20273;-61
2022/02/22 10:36:05;;;;;;;2.97;1.95;;;9.90;95.10;;;;;;5025818;28;20211;-61
2022/02/22 10:38:35;;;;;;;4.80;2.00;;;9.90;95.10;;;;;;5022800;28;20200;-61
2022/02/22 10:41:06;;;;;;;5.30;2.35;;;9.70;95.10;;;;;;5024393;28;20352;-62
2022/02/22 10:43:37;;;;;;;5.10;1.90;;;9.80;95.10;;;;;;5020235;28;20200;-62
2022/02/22 10:46:06;;;;;;;4.03;1.75;;;10.40;94.70;;;;;;5026027;28;20207;-62
2022/02/22 10:48:35;;;;;;;7.43;2.60;;;10.10;94.10;;;;;;5016110;28;20284;-63
2022/02/22 10:51:04;;;;;;;6.78;3.80;;;10.30;94.00;;;;;;5029089;28;20202;-61
2022/02/22 10:53:36;;;;;;;6.30;2.47;;;10.20;93.80;;;;;;5026639;28;20192;-61
2022/02/22 10:56:05;;;;;;;4.43;2.20;;;10.60;94.30;;;;;;5021537;28;20192;-63
2022/02/22 10:58:31;;;;;;;5.22;2.30;;;10.60;93.40;;;;;;5023745;28;20200;-61
2022/02/22 11:00:57;;;;;;;3.88;2.00;;;10.80;93.30;;;;;;5023907;28;20318;-62
2022/02/22 11:03:23;;;;;;;6.95;2.53;;;10.90;93.00;;;;;;5022800;28;20192;-61
2022/02/22 11:05:49;;;;;;;6.50;2.53;;;10.70;93.00;;;;;;5021110;28;20225;-62
2022/02/22 11:08:27;;;;;;;4.82;2.72;;;11.10;93.40;;;;;;5029469;28;20191;-62
2022/02/22 11:10:58;;;;;;;3.75;2.35;;;10.80;93.00;;;;;;5015066;28;20519;-62
2022/02/22 11:13:29;;;;;;;3.08;2.30;;;10.60;93.50;;;;;;5029929;28;20648;-63
2022/02/22 11:15:55;;;;;;;7.13;2.40;;;10.50;93.20;;;;;;5031625;28;20295;-63
2022/02/22 11:18:24;;;;;;;8.17;3.00;;;10.50;93.20;;;;;;5022905;28;20210;-61
2022/02/22 11:20:51;;;;;;;4.65;2.55;;;10.50;93.00;;;;;;5031262;28;20536;-61
2022/02/22 11:23:28;;;;;;;5.28;2.08;;;10.80;93.40;;;;;;5027478;28;20188;-61
2022/02/22 11:26:14;;;;;;;4.93;2.20;;;10.70;93.10;;;;;;5028918;28;20310;-61
2022/02/22 11:28:47;;;;;;;5.88;2.40;;;10.50;93.50;;;;;;5019099;28;20187;-62
2022/02/22 11:31:15;;;;;;;3.58;2.05;;;10.50;94.00;;;;;;5021363;28;20211;-62
2022/02/22 11:33:44;;;;;;;4.13;2.45;;;10.80;94.10;;;;;;5023493;28;20188;-62
2022/02/22 11:36:10;;;;;;;3.00;2.40;;;10.90;93.80;;;;;;5026619;28;20651;-62
2022/02/22 11:38:44;;;;;;;4.37;2.00;;;10.70;93.70;;;;;;5011771;28;20263;-63
2022/02/22 11:41:21;;;;;;;4.00;1.90;;;11.30;92.80;;;;;;5021316;28;20521;-60
2022/02/22 11:43:53;;;;;;;4.53;2.20;;;11.20;92.60;;;;;;5022845;28;20219;-62
2022/02/22 11:46:19;;;;;;;3.45;2.10;;;11.40;92.80;;;;;;5026924;28;20219;-61
2022/02/22 11:48:47;;;;;;;7.10;2.50;;;11.60;92.60;;;;;;5017033;28;20191;-61
2022/02/22 11:51:15;;;;;;;5.18;2.28;;;11.30;92.60;;;;;;5022345;28;20304;-61
2022/02/22 11:53:47;;;;;;;5.47;2.70;;;11.30;92.50;;;;;;5026073;28;20246;-66
2022/02/22 11:56:21;;;;;;;6.72;2.60;;;11.10;92.50;;;;;;5027727;28;20664;-63
2022/02/22 11:58:46;;;;;;;6.07;2.35;;;11.00;92.60;;;;;;5024189;28;20497;-62
2022/02/22 12:01:18;;;;;;;3.97;2.50;;;10.80;92.80;;;;;;5024563;28;20574;-62
2022/02/22 12:03:48;;;;;;;6.55;2.20;;;10.60;93.10;;;;;;5019390;28;20637;-62
2022/02/22 12:06:14;;;;;;;5.85;2.88;;;11.00;93.20;;;;;;5017975;28;20254;-65
2022/02/22 12:08:42;;;;;;;3.47;2.07;;;10.90;93.00;;;;;;5021154;28;20215;-63
2022/02/22 12:11:15;;;;;;;7.50;2.30;;;11.00;92.80;;;;;;5024508;28;20493;-65
2022/02/22 12:13:47;;;;;;;4.13;2.08;;;11.10;92.60;;;;;;5017084;28;20198;-65
2022/02/22 12:16:21;;;;;;;3.97;2.13;;;11.30;92.80;;;;;;5032819;28;20178;-65
2022/02/22 12:18:52;;;;;;;5.43;1.98;;;11.30;92.50;;;;;;5013890;28;20199;-70
2022/02/22 12:21:22;;;;;;;5.15;4.07;;;10.70;92.30;;;;;;5020141;28;20208;-67
2022/02/22 12:23:48;;;;;;;5.55;2.60;;;10.80;93.30;;;;;;5027097;28;20645;-66
2022/02/22 12:26:18;;;;;;;4.63;2.90;;;11.10;93.20;;;;;;5017215;28;20218;-68
2022/02/22 12:28:47;;;;;;;2.20;2.00;;;10.90;93.10;;;;;;5012883;28;20463;-69
2022/02/22 12:31:36;;;;;;;4.03;2.25;;;11.00;93.00;;;;;;5023270;28;20208;-60
2022/02/22 12:34:08;;;;;;;2.70;2.03;;;11.10;92.90;;;;;;5018264;28;20646;-60
2022/02/22 12:36:35;;;;;;;4.90;2.40;;;11.10;92.60;;;;;;5028203;28;20213;-65
2022/02/22 12:39:07;;;;;;;6.90;2.97;;;11.30;92.60;;;;;;5026861;28;20189;-67
2022/02/22 12:41:38;;;;;;;5.22;2.67;;;11.80;92.30;;;;;;5024663;28;20213;-66
2022/02/22 12:44:11;;;;;;;5.07;2.10;;;11.90;92.00;;;;;;5009820;28;20253;-68
2022/02/22 12:46:38;;;;;;;5.63;2.20;;;11.90;91.20;;;;;;5013713;28;20212;-66
2022/02/22 12:49:09;;;;;;;6.95;3.35;;;11.90;91.10;;;;;;5019970;28;20188;-63
2022/02/22 12:51:35;;;;;;;7.88;3.03;;;11.90;90.90;;;;;;5023416;28;20689;-62
2022/02/22 12:54:09;;;;;;;8.90;2.90;;;11.60;91.10;;;;;;5026895;28;20189;-62